This is the latest recevied weather packets stored in our database for station/object EA4BCR. If no packets are shown the sender has not sent any weather packets the latest 10 day(s).
| Time | Temp. | Humidity | Pressure | Rain* | Wind** | Luminosity | Snow |
|---|---|---|---|---|---|---|---|
| 1777610212 | 16.11° C | 86% | 1017.7 hPa | - | - | - | - |
| 1777609012 | 15.56° C | 93% | 1017.7 hPa | - | - | - | - |
| 1777607212 | 15.56° C | 94% | 1017.8 hPa | - | - | - | - |
| 1777606612 | 15.56° C | 93% | 1017.7 hPa | - | - | - | - |
| 1777606012 | 15.56° C | 88% | 1017.6 hPa | - | - | - | - |
| 1777605412 | 15.56° C | 91% | 1017.6 hPa | - | - | - | - |
| 1777604812 | 16.11° C | 89% | 1017.6 hPa | - | - | - | - |
| 1777603612 | 15.56° C | 91% | 1017.5 hPa | - | - | - | - |
| 1777603012 | 15.56° C | 90% | 1017.6 hPa | - | - | - | - |
| 1777602412 | 15.56° C | 90% | 1017.6 hPa | - | - | - | - |
| 1777601812 | 15.56° C | 93% | 1017.7 hPa | - | - | - | - |
| 1777601212 | 14.44° C | 93% | 1018 hPa | - | - | - | - |
| 1777600612 | 15° C | 77% | 1017.9 hPa | - | - | - | - |
| 1777600012 | 14.44° C | 76% | 1018.2 hPa | - | - | - | - |
| 1777599412 | 13.89° C | 74% | 1018.3 hPa | - | - | - | - |
| 1777598812 | 14.44° C | 69% | 1018.2 hPa | - | - | - | - |
| 1777598212 | 14.44° C | 66% | 1018 hPa | - | - | - | - |
| 1777597612 | 14.44° C | 66% | 1018.3 hPa | - | - | - | - |
| 1777597012 | 14.44° C | 66% | 1018.4 hPa | - | - | - | - |
| 1777596411 | 14.44° C | 64% | 1018.4 hPa | - | - | - | - |
| 1777595812 | 14.44° C | 65% | 1018.5 hPa | - | - | - | - |
| 1777595212 | 13.89° C | 66% | 1018.5 hPa | - | - | - | - |
| 1777594612 | 14.44° C | 62% | 1018.3 hPa | - | - | - | - |
| 1777594012 | 14.44° C | 62% | 1018.2 hPa | - | - | - | - |
| 1777593412 | 15° C | 62% | 1018 hPa | - | - | - | - |
* Rain since midnight (hover to see other rain measurements)
** Current wind speed in m/s (hover to see current wind gust speed)